Time;durP1;ratioP1;P1;durP2;ratioP2;P2;SDS_P1;SDS_P2;PMS_P1;PMS_P2;Temp;Humidity;BMP_temperature;BMP_pressure;BME280_temperature;BME280_humidity;BME280_pressure;Samples;Min_cycle;Max_cycle;Signal;HPM_P1;HPM_P2
2021/01/13 00:00:27;;;;;;;1.08;0.85;;;-2.80;99.90;;;;;;4964702;28;20136;-68
2021/01/13 00:02:53;;;;;;;1.40;0.88;;;-2.70;99.90;;;;;;4963526;28;20046;-65
2021/01/13 00:05:21;;;;;;;2.10;0.90;;;-2.70;99.90;;;;;;4963510;28;20051;-63
2021/01/13 00:07:51;;;;;;;3.80;0.88;;;-2.70;99.90;;;;;;4962760;28;20066;-66
2021/01/13 00:10:19;;;;;;;1.48;1.00;;;-2.70;99.90;;;;;;4963866;28;20038;-67
2021/01/13 00:12:46;;;;;;;1.50;0.93;;;-2.70;99.90;;;;;;4963811;28;20081;-65
2021/01/13 00:15:13;;;;;;;2.97;0.88;;;-2.70;99.90;;;;;;4961738;28;20510;-69
2021/01/13 00:17:45;;;;;;;4.28;0.93;;;-2.70;99.90;;;;;;4963451;28;20058;-64
2021/01/13 00:20:12;;;;;;;1.58;1.00;;;-2.70;99.90;;;;;;4963119;28;20050;-65
2021/01/13 00:22:38;;;;;;;2.97;0.88;;;-2.80;99.90;;;;;;4963243;28;20322;-66
2021/01/13 00:25:05;;;;;;;1.42;0.70;;;-2.70;99.90;;;;;;4963537;28;20061;-65
2021/01/13 00:27:34;;;;;;;1.90;1.30;;;-2.80;99.90;;;;;;4962528;28;20487;-66
2021/01/13 00:30:02;;;;;;;1.17;0.83;;;-2.70;99.90;;;;;;4962947;28;20065;-65
2021/01/13 00:32:31;;;;;;;2.13;1.38;;;-2.70;99.90;;;;;;4963341;28;20282;-67
2021/01/13 00:34:58;;;;;;;1.52;1.38;;;-2.70;99.90;;;;;;4958461;28;20141;-66
2021/01/13 00:37:26;;;;;;;2.13;1.35;;;-2.70;99.90;;;;;;4958566;28;20129;-65
2021/01/13 00:39:52;;;;;;;3.22;1.45;;;-2.70;99.90;;;;;;4963050;28;20149;-64
2021/01/13 00:42:19;;;;;;;1.27;1.10;;;-2.70;99.90;;;;;;4962487;28;20162;-63
2021/01/13 00:44:45;;;;;;;2.83;1.52;;;-2.60;99.90;;;;;;4962902;28;20522;-66
2021/01/13 00:47:15;;;;;;;5.03;1.35;;;-2.60;99.90;;;;;;4962000;28;20054;-69
2021/01/13 00:49:42;;;;;;;2.25;1.25;;;-2.60;99.90;;;;;;4963461;28;20789;-64
2021/01/13 00:52:10;;;;;;;1.70;1.55;;;-2.50;99.90;;;;;;4963027;28;20105;-63
2021/01/13 00:54:36;;;;;;;2.08;1.38;;;-2.50;99.90;;;;;;4964384;28;20125;-63
2021/01/13 00:57:05;;;;;;;1.65;1.15;;;-2.50;99.90;;;;;;4970607;28;20598;-63
2021/01/13 00:59:32;;;;;;;1.77;1.65;;;-2.40;99.90;;;;;;4961617;28;20054;-68
2021/01/13 01:01:59;;;;;;;2.00;0.98;;;-2.50;99.90;;;;;;4963561;28;20126;-66
2021/01/13 01:04:26;;;;;;;2.88;1.00;;;-2.50;99.90;;;;;;4962201;28;20051;-65
2021/01/13 01:06:52;;;;;;;4.13;1.00;;;-2.50;99.90;;;;;;4966386;28;20110;-68
2021/01/13 01:09:19;;;;;;;1.88;1.33;;;-2.50;99.90;;;;;;4966408;28;20058;-64
2021/01/13 01:11:46;;;;;;;3.15;1.20;;;-2.60;99.90;;;;;;4962047;28;20343;-65
2021/01/13 01:14:12;;;;;;;1.88;1.42;;;-2.50;99.90;;;;;;4959081;28;20905;-63
2021/01/13 01:16:41;;;;;;;1.45;1.35;;;-2.50;99.90;;;;;;4963087;28;20438;-68
2021/01/13 01:19:09;;;;;;;1.33;1.05;;;-2.50;99.90;;;;;;4963459;28;20474;-68
2021/01/13 01:21:43;;;;;;;2.83;1.42;;;-2.50;99.90;;;;;;4961086;28;20125;-68
2021/01/13 01:24:10;;;;;;;1.67;0.90;;;-2.50;99.90;;;;;;4962793;28;20055;-69
2021/01/13 01:26:46;;;;;;;4.70;1.45;;;-2.50;99.90;;;;;;4954979;28;20058;-66
2021/01/13 01:29:14;;;;;;;1.90;1.20;;;-2.60;99.90;;;;;;4959929;28;20134;-64
2021/01/13 01:31:41;;;;;;;2.92;1.15;;;-2.60;99.90;;;;;;4966930;28;20049;-65
2021/01/13 01:34:07;;;;;;;3.47;1.23;;;-2.60;99.90;;;;;;4965717;28;20038;-66
2021/01/13 01:36:34;;;;;;;1.48;0.95;;;-2.70;99.90;;;;;;4966249;28;20055;-63
2021/01/13 01:39:01;;;;;;;1.42;1.23;;;-2.60;99.90;;;;;;4965540;28;20046;-66
2021/01/13 01:41:27;;;;;;;1.30;0.97;;;-2.60;99.90;;;;;;4963989;28;20050;-67
2021/01/13 01:43:54;;;;;;;2.05;1.70;;;-2.60;99.90;;;;;;4965757;28;20050;-65
2021/01/13 01:46:23;;;;;;;1.77;0.93;;;-2.70;99.90;;;;;;4966255;28;20153;-66
2021/01/13 01:48:51;;;;;;;1.23;1.10;;;-2.70;99.90;;;;;;4965827;28;20042;-66
2021/01/13 01:51:25;;;;;;;2.85;1.60;;;-2.70;99.90;;;;;;4964870;28;20055;-67
2021/01/13 01:54:15;;;;;;;2.10;1.83;;;-2.70;99.90;;;;;;4965295;28;20050;-63
2021/01/13 01:56:43;;;;;;;1.77;1.33;;;-2.70;99.90;;;;;;4966739;28;20050;-66
2021/01/13 01:59:11;;;;;;;2.05;1.77;;;-2.60;99.90;;;;;;4966193;28;20550;-63
2021/01/13 02:01:40;;;;;;;2.45;1.65;;;-2.60;99.90;;;;;;4964768;28;20140;-65
2021/01/13 02:04:15;;;;;;;2.08;1.17;;;-2.70;99.90;;;;;;4967746;28;20042;-64
2021/01/13 02:07:16;;;;;;;3.03;1.63;;;-2.60;99.90;;;;;;4965977;28;20137;-66
2021/01/13 02:09:43;;;;;;;1.65;1.02;;;-2.70;99.90;;;;;;4963651;28;20117;-65
2021/01/13 02:12:11;;;;;;;2.88;1.02;;;-2.60;99.90;;;;;;4972963;28;20105;-67
2021/01/13 02:14:41;;;;;;;2.08;1.38;;;-2.70;99.90;;;;;;4964790;28;20039;-64
2021/01/13 02:17:11;;;;;;;1.95;1.67;;;-2.70;99.90;;;;;;4965952;28;20800;-70
2021/01/13 02:19:47;;;;;;;3.60;1.35;;;-2.70;99.90;;;;;;4963452;28;20154;-64
2021/01/13 02:22:16;;;;;;;2.60;0.77;;;-2.70;99.90;;;;;;4960271;28;20047;-63
2021/01/13 02:25:10;;;;;;;4.63;1.35;;;-2.70;99.90;;;;;;4961131;28;20062;-66
2021/01/13 02:28:02;;;;;;;2.15;0.70;;;-2.80;99.90;;;;;;4963625;28;20129;-66
2021/01/13 02:30:37;;;;;;;2.58;1.23;;;-2.80;99.90;;;;;;4965033;28;20486;-65
2021/01/13 02:33:12;;;;;;;1.65;1.50;;;-2.80;99.90;;;;;;4953971;28;20601;-66
2021/01/13 02:36:14;;;;;;;1.27;0.90;;;-2.80;99.90;;;;;;4962941;28;20438;-66
2021/01/13 02:38:41;;;;;;;2.25;0.90;;;-2.80;99.90;;;;;;4958188;28;20043;-63
2021/01/13 02:41:16;;;;;;;3.17;0.82;;;-2.80;99.90;;;;;;4964419;28;20539;-66
2021/01/13 02:43:55;;;;;;;1.13;0.70;;;-2.80;99.90;;;;;;4961468;28;20484;-65
2021/01/13 02:46:55;;;;;;;1.55;0.90;;;-2.90;99.90;;;;;;4965508;28;20046;-66
2021/01/13 02:49:28;;;;;;;1.27;0.57;;;-2.90;99.90;;;;;;4963343;28;20066;-64
2021/01/13 02:51:57;;;;;;;2.92;0.70;;;-2.90;99.90;;;;;;4965844;28;20153;-63
2021/01/13 02:54:32;;;;;;;3.25;1.02;;;-2.90;99.90;;;;;;4966286;28;20141;-69
2021/01/13 02:57:07;;;;;;;1.13;0.68;;;-2.90;99.90;;;;;;4964769;28;20078;-65
2021/01/13 02:59:36;;;;;;;1.38;0.77;;;-2.90;99.90;;;;;;4964925;28;20065;-63
2021/01/13 03:02:10;;;;;;;1.33;0.70;;;-3.00;99.90;;;;;;4968142;28;20416;-66
2021/01/13 03:04:38;;;;;;;0.50;0.50;;;-2.90;99.90;;;;;;4967744;28;20613;-65
2021/01/13 03:07:13;;;;;;;1.05;0.50;;;-2.90;99.90;;;;;;4965781;28;20146;-63
2021/01/13 03:09:46;;;;;;;1.58;0.88;;;-2.90;99.90;;;;;;4964800;28;20383;-70
2021/01/13 03:12:27;;;;;;;1.02;0.25;;;-3.00;99.90;;;;;;4965071;28;20042;-66
2021/01/13 03:14:57;;;;;;;0.60;0.60;;;-3.00;99.90;;;;;;4966595;28;20050;-68
2021/01/13 03:17:36;;;;;;;1.67;0.50;;;-3.00;99.90;;;;;;4964996;28;20069;-62
2021/01/13 03:20:13;;;;;;;0.65;0.30;;;-3.00;99.90;;;;;;4968834;28;20061;-64
2021/01/13 03:23:05;;;;;;;1.08;0.50;;;-3.10;99.90;;;;;;4960491;28;20070;-66
2021/01/13 03:25:37;;;;;;;2.63;0.52;;;-3.10;99.90;;;;;;4956189;28;20066;-66
2021/01/13 03:28:06;;;;;;;1.75;1.10;;;-3.10;99.90;;;;;;4952692;28;20106;-63
2021/01/13 03:30:34;;;;;;;1.35;0.63;;;-3.10;99.90;;;;;;4957418;28;20067;-66
2021/01/13 03:33:13;;;;;;;1.07;0.97;;;-3.10;99.90;;;;;;4963268;28;20142;-64
2021/01/13 03:36:03;;;;;;;4.57;0.60;;;-3.20;99.90;;;;;;4964473;28;20042;-66
2021/01/13 03:39:05;;;;;;;1.37;0.70;;;-3.20;99.90;;;;;;4963875;28;20093;-66
2021/01/13 03:41:53;;;;;;;2.25;0.63;;;-3.20;99.90;;;;;;4963925;28;20057;-64
2021/01/13 03:44:27;;;;;;;1.07;0.87;;;-3.20;99.90;;;;;;4963074;28;20141;-66
2021/01/13 03:46:54;;;;;;;2.27;0.53;;;-3.20;99.90;;;;;;4965144;28;20039;-66
2021/01/13 03:49:36;;;;;;;1.58;0.60;;;-3.30;99.90;;;;;;4958533;28;20739;-63
2021/01/13 03:52:10;;;;;;;0.50;0.50;;;-3.30;99.90;;;;;;4960406;28;20043;-69
2021/01/13 03:54:37;;;;;;;2.17;0.65;;;-3.30;99.90;;;;;;4956689;28;20042;-66
2021/01/13 03:57:06;;;;;;;1.17;0.80;;;-3.30;99.90;;;;;;4962924;28;20042;-65
2021/01/13 04:00:21;;;;;;;1.08;0.80;;;-3.30;99.90;;;;;;4964792;28;20057;-63
2021/01/13 04:03:20;;;;;;;1.10;0.60;;;-3.30;99.90;;;;;;4965488;28;20835;-64
2021/01/13 04:06:07;;;;;;;2.28;0.80;;;-3.40;99.90;;;;;;4960086;28;20070;-63
2021/01/13 04:08:39;;;;;;;1.02;0.70;;;-3.40;99.90;;;;;;4963351;28;20126;-69
2021/01/13 04:11:08;;;;;;;2.65;0.75;;;-3.40;99.90;;;;;;4961922;28;20043;-63
2021/01/13 04:13:40;;;;;;;1.65;0.77;;;-3.40;99.90;;;;;;4962542;28;20047;-66
2021/01/13 04:16:12;;;;;;;0.60;0.53;;;-3.40;99.90;;;;;;4963612;28;20054;-65
2021/01/13 04:18:41;;;;;;;1.48;0.73;;;-3.40;99.90;;;;;;4962548;28;20043;-67
2021/01/13 04:21:10;;;;;;;1.77;1.07;;;-3.50;99.90;;;;;;4961046;28;20152;-65
2021/01/13 04:23:37;;;;;;;2.53;0.73;;;-3.50;99.90;;;;;;4958151;28;20126;-64
2021/01/13 04:26:04;;;;;;;0.83;0.70;;;-3.50;99.90;;;;;;4961619;28;20047;-64
2021/01/13 04:28:31;;;;;;;3.23;0.80;;;-3.50;99.90;;;;;;4963404;28;20058;-68
2021/01/13 04:30:58;;;;;;;0.63;0.47;;;-3.50;99.90;;;;;;4963815;28;20121;-67
2021/01/13 04:33:25;;;;;;;3.53;1.05;;;-3.50;99.90;;;;;;4960830;28;20106;-64
2021/01/13 04:35:53;;;;;;;1.85;0.82;;;-3.50;99.90;;;;;;4963737;28;20113;-68
2021/01/13 04:38:30;;;;;;;1.37;0.80;;;-3.60;99.90;;;;;;4962158;28;20074;-65
2021/01/13 04:41:09;;;;;;;2.53;0.77;;;-3.60;99.90;;;;;;4963460;28;20046;-64
2021/01/13 04:43:56;;;;;;;0.98;0.57;;;-3.60;99.90;;;;;;4961516;28;20085;-65
2021/01/13 04:46:35;;;;;;;3.23;0.70;;;-3.60;99.90;;;;;;4963331;28;20078;-68
2021/01/13 04:49:21;;;;;;;1.30;0.70;;;-3.60;99.90;;;;;;4963099;28;20148;-65
2021/01/13 04:51:47;;;;;;;3.43;0.87;;;-3.60;99.90;;;;;;4958851;28;20054;-64
2021/01/13 04:54:16;;;;;;;3.23;0.70;;;-3.60;99.90;;;;;;4962449;28;20193;-64
2021/01/13 04:56:42;;;;;;;1.67;0.90;;;-3.60;99.90;;;;;;4964104;28;20051;-69
2021/01/13 04:59:30;;;;;;;3.00;1.00;;;-3.60;99.90;;;;;;4953987;28;20047;-68
2021/01/13 05:02:16;;;;;;;5.53;1.03;;;-3.60;99.90;;;;;;4956980;28;20754;-63
2021/01/13 05:05:00;;;;;;;1.63;0.73;;;-3.60;99.90;;;;;;4964959;28;20122;-63
2021/01/13 05:07:39;;;;;;;1.50;1.40;;;-3.70;99.90;;;;;;4963848;28;20189;-68
2021/01/13 05:10:16;;;;;;;3.43;0.90;;;-3.60;99.90;;;;;;4966473;28;20420;-69
2021/01/13 05:12:45;;;;;;;1.93;1.00;;;-3.60;99.90;;;;;;4967117;28;20069;-64
2021/01/13 05:15:34;;;;;;;3.93;0.87;;;-3.70;99.90;;;;;;4966196;28;20071;-63
2021/01/13 05:18:11;;;;;;;2.50;0.70;;;-3.70;99.90;;;;;;4963258;28;20058;-66
2021/01/13 05:20:43;;;;;;;0.80;0.70;;;-3.70;99.90;;;;;;4969006;28;20121;-66
2021/01/13 05:23:14;;;;;;;3.93;1.00;;;-3.70;99.90;;;;;;4965044;28;20042;-66
2021/01/13 05:25:51;;;;;;;4.60;1.00;;;-3.80;99.90;;;;;;4965878;28;20047;-64
2021/01/13 05:28:20;;;;;;;3.87;1.17;;;-3.80;99.90;;;;;;4968019;28;20042;-66
2021/01/13 05:30:59;;;;;;;3.67;1.17;;;-3.80;99.90;;;;;;4969372;28;20047;-66
2021/01/13 05:33:29;;;;;;;1.90;1.00;;;-3.80;99.90;;;;;;4966103;28;20106;-62
2021/01/13 05:36:04;;;;;;;2.40;1.27;;;-3.80;99.90;;;;;;4968440;28;20502;-63
2021/01/13 05:39:02;;;;;;;9.93;1.53;;;-3.80;99.90;;;;;;4962152;28;20538;-65
2021/01/13 05:41:29;;;;;;;0.60;0.60;;;-3.80;99.90;;;;;;4964880;28;20102;-66
2021/01/13 05:43:56;;;;;;;5.23;1.47;;;-3.70;99.90;;;;;;4967158;28;20105;-63
2021/01/13 05:46:23;;;;;;;1.83;1.10;;;-3.70;99.90;;;;;;4968004;28;20045;-68
2021/01/13 05:48:52;;;;;;;9.00;0.97;;;-3.80;99.90;;;;;;4967860;28;20053;-63
2021/01/13 05:51:28;;;;;;;2.77;1.40;;;-3.80;99.90;;;;;;4965194;28;20054;-65
2021/01/13 05:53:55;;;;;;;4.63;1.00;;;-3.80;99.90;;;;;;4966338;28;20066;-65
2021/01/13 05:56:22;;;;;;;4.27;1.27;;;-3.80;99.90;;;;;;4969047;28;20197;-62
2021/01/13 05:59:14;;;;;;;5.17;1.63;;;-3.80;99.90;;;;;;4965725;28;20058;-65
2021/01/13 06:01:48;;;;;;;8.33;1.70;;;-3.80;99.90;;;;;;4965350;28;20043;-66
2021/01/13 06:04:16;;;;;;;12.07;1.70;;;-3.80;99.90;;;;;;4965225;28;20605;-68
2021/01/13 06:07:09;;;;;;;5.30;1.07;;;-3.80;99.90;;;;;;4966835;28;20134;-66
2021/01/13 06:09:43;;;;;;;1.17;0.83;;;-3.80;99.90;;;;;;4963726;28;20043;-64
2021/01/13 06:12:18;;;;;;;5.40;2.23;;;-3.80;99.90;;;;;;4962436;28;20131;-65
2021/01/13 06:14:49;;;;;;;5.50;1.03;;;-3.90;99.90;;;;;;4964695;28;20510;-66
2021/01/13 06:17:21;;;;;;;2.97;1.23;;;-3.90;99.90;;;;;;4959861;28;20050;-65
2021/01/13 06:19:55;;;;;;;3.07;1.30;;;-3.90;99.90;;;;;;4962623;28;20070;-63
2021/01/13 06:22:30;;;;;;;5.20;1.00;;;-3.90;99.90;;;;;;4964435;28;20070;-63
2021/01/13 06:25:02;;;;;;;10.10;1.73;;;-3.90;99.90;;;;;;4964324;28;20051;-63
2021/01/13 06:27:56;;;;;;;6.00;1.20;;;-3.90;99.90;;;;;;4963222;28;20079;-65
2021/01/13 06:30:40;;;;;;;3.73;2.30;;;-3.90;99.90;;;;;;4964057;28;20047;-67
2021/01/13 06:33:23;;;;;;;3.40;1.10;;;-3.90;99.90;;;;;;4963363;28;20046;-67
2021/01/13 06:36:05;;;;;;;9.13;1.77;;;-3.90;99.90;;;;;;4962251;28;20043;-67
2021/01/13 06:38:42;;;;;;;10.03;1.60;;;-3.90;99.90;;;;;;4962020;28;20153;-67
2021/01/13 06:41:10;;;;;;;10.57;1.77;;;-3.90;99.90;;;;;;4964082;28;20059;-66
2021/01/13 06:43:37;;;;;;;8.60;2.00;;;-3.90;99.90;;;;;;4959629;28;20130;-65
2021/01/13 06:46:17;;;;;;;6.93;1.87;;;-3.90;99.90;;;;;;4963589;28;20086;-67
2021/01/13 06:48:44;;;;;;;4.93;2.73;;;-4.00;99.90;;;;;;4963675;28;20356;-67
2021/01/13 06:51:16;;;;;;;4.03;2.10;;;-4.00;99.90;;;;;;4962947;28;20043;-72
2021/01/13 06:53:46;;;;;;;6.00;2.50;;;-4.00;99.90;;;;;;4962613;28;20043;-66
2021/01/13 06:56:17;;;;;;;11.70;2.83;;;-4.00;99.90;;;;;;4962633;28;20070;-69
2021/01/13 06:59:14;;;;;;;12.67;4.50;;;-4.00;99.90;;;;;;4959782;28;20043;-65
2021/01/13 07:01:58;;;;;;;2.50;2.27;;;-4.00;99.90;;;;;;4957500;28;20090;-68
2021/01/13 07:04:26;;;;;;;4.73;1.83;;;-4.00;99.90;;;;;;4963512;28;20130;-65
2021/01/13 07:07:02;;;;;;;6.70;2.43;;;-4.00;99.90;;;;;;4961692;28;20043;-71
2021/01/13 07:09:41;;;;;;;19.23;2.30;;;-4.00;99.90;;;;;;4962678;28;20714;-67
2021/01/13 07:12:19;;;;;;;7.73;2.40;;;-4.00;99.90;;;;;;4961294;28;20419;-65
2021/01/13 07:14:49;;;;;;;2.57;2.37;;;-4.00;99.90;;;;;;4961447;28;20122;-65
2021/01/13 07:17:20;;;;;;;6.15;2.95;;;-4.00;99.90;;;;;;4960017;28;20078;-65
2021/01/13 07:19:55;;;;;;;21.90;4.27;;;-4.00;99.90;;;;;;4959757;28;20051;-67
2021/01/13 07:22:24;;;;;;;5.83;2.83;;;-4.00;99.90;;;;;;4961421;28;20047;-67
2021/01/13 07:24:51;;;;;;;10.50;3.30;;;-3.90;99.90;;;;;;4960877;28;20110;-65
2021/01/13 07:27:20;;;;;;;7.70;3.47;;;-3.90;99.90;;;;;;4941457;28;20043;-69
2021/01/13 07:29:48;;;;;;;7.93;3.17;;;-3.90;99.90;;;;;;4964369;28;20047;-67
2021/01/13 07:32:20;;;;;;;4.50;2.97;;;-3.80;99.90;;;;;;4964607;28;20082;-69
2021/01/13 07:34:54;;;;;;;5.93;2.87;;;-3.80;99.90;;;;;;4963829;28;20046;-68
2021/01/13 07:37:22;;;;;;;4.60;2.77;;;-3.70;99.90;;;;;;4961495;28;20050;-67
2021/01/13 07:40:03;;;;;;;2.37;2.17;;;-3.70;99.90;;;;;;4964471;28;20137;-68
2021/01/13 07:42:37;;;;;;;3.87;3.17;;;-3.70;99.90;;;;;;4964546;28;20146;-66
2021/01/13 07:45:09;;;;;;;11.13;2.70;;;-3.70;99.90;;;;;;4964517;28;20057;-68
2021/01/13 07:47:57;;;;;;;3.10;2.50;;;-3.60;99.90;;;;;;4963236;28;20062;-66
2021/01/13 07:50:24;;;;;;;5.03;2.97;;;-3.60;99.90;;;;;;4964214;28;20673;-68
2021/01/13 07:52:52;;;;;;;4.00;2.60;;;-3.60;99.90;;;;;;4957539;28;20055;-70
2021/01/13 07:55:20;;;;;;;7.70;2.07;;;-3.50;99.90;;;;;;4965669;28;20812;-68
2021/01/13 07:57:49;;;;;;;2.37;2.17;;;-3.50;99.90;;;;;;4967235;28;20046;-66
2021/01/13 08:00:31;;;;;;;4.55;2.22;;;-3.40;99.90;;;;;;4960771;28;20086;-66
2021/01/13 08:02:57;;;;;;;4.63;2.00;;;-3.40;99.90;;;;;;4962680;28;20059;-70
2021/01/13 08:05:42;;;;;;;5.00;1.97;;;-3.40;99.90;;;;;;4961778;28;20074;-68
2021/01/13 08:08:10;;;;;;;3.70;2.53;;;-3.30;99.90;;;;;;4957638;28;20054;-68
2021/01/13 08:10:41;;;;;;;2.65;2.25;;;-3.30;99.90;;;;;;4961812;28;20437;-68
2021/01/13 08:13:22;;;;;;;2.58;1.90;;;-3.20;99.90;;;;;;4963435;28;20082;-67
2021/01/13 08:16:11;;;;;;;2.83;1.70;;;-3.20;99.90;;;;;;4960380;28;20051;-71
2021/01/13 08:19:05;;;;;;;6.15;2.30;;;-3.20;99.90;;;;;;4963636;28;20055;-66
2021/01/13 08:21:54;;;;;;;6.43;2.23;;;-3.10;99.90;;;;;;4961836;28;20055;-68
2021/01/13 08:24:30;;;;;;;6.28;1.98;;;-3.10;99.90;;;;;;4960663;28;20130;-69
2021/01/13 08:27:02;;;;;;;5.00;1.93;;;-3.10;99.90;;;;;;4961422;28;20129;-67
2021/01/13 08:29:39;;;;;;;2.13;1.53;;;-3.10;99.90;;;;;;4961761;28;20121;-68
2021/01/13 08:32:07;;;;;;;1.70;1.60;;;-3.10;99.90;;;;;;4961759;28;20051;-67
2021/01/13 08:34:41;;;;;;;1.88;1.40;;;-3.10;99.90;;;;;;4962614;28;20046;-67
2021/01/13 08:37:08;;;;;;;2.07;1.40;;;-3.10;99.90;;;;;;4956295;28;20533;-67
2021/01/13 08:39:36;;;;;;;2.50;1.47;;;-3.20;99.90;;;;;;4962136;28;20046;-67
2021/01/13 08:42:20;;;;;;;3.90;1.90;;;-3.10;99.90;;;;;;4962725;28;20407;-69
2021/01/13 08:44:48;;;;;;;4.95;1.73;;;-3.10;99.90;;;;;;4963416;28;20499;-65
2021/01/13 08:47:15;;;;;;;3.78;1.42;;;-3.10;99.90;;;;;;4960303;28;20059;-65
2021/01/13 08:49:45;;;;;;;1.73;1.48;;;-3.10;99.90;;;;;;4964074;28;20046;-68
2021/01/13 08:52:12;;;;;;;2.10;1.57;;;-3.00;99.90;;;;;;4962276;28;20123;-66
2021/01/13 08:54:40;;;;;;;2.60;1.70;;;-3.00;99.90;;;;;;4963114;28;20141;-70
2021/01/13 08:57:08;;;;;;;1.67;1.37;;;-3.00;99.90;;;;;;4963051;28;20043;-66
2021/01/13 08:59:37;;;;;;;3.13;1.30;;;-2.90;99.90;;;;;;4962230;28;20068;-66
2021/01/13 09:02:07;;;;;;;3.13;1.17;;;-2.90;99.90;;;;;;4962177;28;20144;-70
2021/01/13 09:04:55;;;;;;;6.15;1.60;;;-2.80;99.90;;;;;;4963639;28;20138;-69
2021/01/13 09:07:25;;;;;;;8.40;1.95;;;-2.80;99.90;;;;;;4958872;28;20144;-67
2021/01/13 09:10:04;;;;;;;6.38;2.03;;;-2.70;99.90;;;;;;4963214;28;20047;-69
2021/01/13 09:12:35;;;;;;;;;;;-2.70;99.90;;;;;;4962747;28;20047;-66
2021/01/13 09:15:07;;;;;;;2.25;1.90;;;-2.70;99.90;;;;;;4963663;28;20270;-67
2021/01/13 09:17:34;;;;;;;4.57;1.90;;;-2.60;99.90;;;;;;4961546;28;20047;-68
2021/01/13 09:20:05;;;;;;;10.25;2.10;;;-2.60;99.90;;;;;;4963316;28;20092;-68
2021/01/13 09:23:01;;;;;;;8.10;1.67;;;-2.50;99.90;;;;;;4961895;28;20458;-67
2021/01/13 09:25:33;;;;;;;2.05;1.90;;;-2.50;99.90;;;;;;4957536;28;20042;-67
2021/01/13 09:28:03;;;;;;;5.90;2.13;;;-2.40;99.90;;;;;;4962891;28;20141;-66
2021/01/13 09:30:38;;;;;;;7.78;1.70;;;-2.40;99.90;;;;;;4963344;28;20062;-67
2021/01/13 09:33:16;;;;;;;3.65;2.03;;;-2.30;99.90;;;;;;4962628;28;20051;-65
2021/01/13 09:35:58;;;;;;;2.83;1.20;;;-2.30;99.90;;;;;;4961734;28;20057;-67
2021/01/13 09:38:30;;;;;;;3.47;1.20;;;-2.30;99.90;;;;;;4961457;28;20082;-67
2021/01/13 09:41:04;;;;;;;3.28;1.85;;;-2.20;99.90;;;;;;4962311;28;20050;-64
2021/01/13 09:43:44;;;;;;;8.02;1.52;;;-2.20;99.90;;;;;;4961099;28;20047;-66
2021/01/13 09:46:22;;;;;;;3.40;1.60;;;-2.20;99.90;;;;;;4959400;28;20088;-65
2021/01/13 09:49:03;;;;;;;5.40;1.48;;;-2.10;99.90;;;;;;4961810;28;20128;-66
2021/01/13 09:51:30;;;;;;;3.55;1.70;;;-2.10;99.90;;;;;;4963356;28;20721;-66
2021/01/13 09:53:58;;;;;;;9.05;1.90;;;-2.00;99.90;;;;;;4966292;28;20047;-66
2021/01/13 09:56:29;;;;;;;4.45;1.70;;;-1.90;99.90;;;;;;4963242;28;20078;-68
2021/01/13 09:58:56;;;;;;;3.40;1.60;;;-1.90;99.90;;;;;;4966283;28;20038;-66
2021/01/13 10:01:31;;;;;;;2.60;1.55;;;-1.90;99.90;;;;;;4964743;28;20105;-66
2021/01/13 10:04:01;;;;;;;6.13;2.08;;;-1.80;99.90;;;;;;4961834;28;20062;-67
2021/01/13 10:06:29;;;;;;;4.28;2.03;;;-1.70;99.90;;;;;;4966435;28;20070;-64
2021/01/13 10:09:16;;;;;;;2.92;1.38;;;-1.70;99.90;;;;;;4962994;28;20503;-65
2021/01/13 10:11:43;;;;;;;2.90;1.80;;;-1.60;99.90;;;;;;4965717;28;20050;-65
2021/01/13 10:14:13;;;;;;;5.22;1.98;;;-1.60;99.90;;;;;;4965688;28;20053;-65
2021/01/13 10:16:46;;;;;;;5.00;1.20;;;-1.60;99.90;;;;;;4965502;28;20129;-65
2021/01/13 10:19:13;;;;;;;2.90;1.17;;;-1.60;99.90;;;;;;4964331;28;20117;-68
2021/01/13 10:21:42;;;;;;;1.30;1.15;;;-1.50;99.90;;;;;;4965286;28;20042;-66
2021/01/13 10:24:12;;;;;;;3.13;2.30;;;-1.50;99.90;;;;;;4964602;28;20109;-69
2021/01/13 10:26:41;;;;;;;6.07;2.38;;;-1.40;99.90;;;;;;4966196;28;20063;-66
2021/01/13 10:29:13;;;;;;;3.73;3.10;;;-1.40;99.90;;;;;;4965325;28;20134;-67
2021/01/13 10:31:40;;;;;;;3.65;3.13;;;-1.30;99.90;;;;;;4964394;28;20062;-66
2021/01/13 10:34:11;;;;;;;3.47;3.17;;;-1.20;99.90;;;;;;4966119;28;20038;-64
2021/01/13 10:36:44;;;;;;;3.72;3.28;;;-1.20;99.90;;;;;;4965889;28;20058;-66
2021/01/13 10:39:37;;;;;;;2.67;2.35;;;-1.20;99.90;;;;;;4964939;28;20503;-65
2021/01/13 10:42:06;;;;;;;4.03;2.45;;;-1.10;99.90;;;;;;4951410;28;20074;-65
2021/01/13 10:44:34;;;;;;;2.15;1.85;;;-1.10;99.90;;;;;;4965988;28;20051;-65
2021/01/13 10:47:11;;;;;;;2.28;2.08;;;-1.10;99.90;;;;;;4965044;28;20039;-67
2021/01/13 10:49:43;;;;;;;9.45;2.60;;;-1.00;99.90;;;;;;4963846;28;20042;-67
2021/01/13 10:52:21;;;;;;;3.13;2.25;;;-1.00;99.90;;;;;;4961439;28;20047;-66
2021/01/13 10:54:49;;;;;;;4.18;3.03;;;-1.00;99.90;;;;;;4965302;28;20045;-65
2021/01/13 10:57:23;;;;;;;2.25;1.92;;;-1.00;99.90;;;;;;4963428;28;20584;-64
2021/01/13 11:00:10;;;;;;;2.10;1.77;;;-0.90;99.90;;;;;;4961878;28;20055;-67
2021/01/13 11:02:39;;;;;;;2.75;2.05;;;-0.90;99.90;;;;;;4963391;28;20054;-66
2021/01/13 11:05:06;;;;;;;3.70;1.70;;;-0.90;99.90;;;;;;4963599;28;20477;-66
2021/01/13 11:07:38;;;;;;;5.60;1.52;;;-0.80;99.90;;;;;;4961858;28;20051;-65
2021/01/13 11:10:08;;;;;;;2.95;1.02;;;-0.80;99.90;;;;;;4965011;28;20118;-68
2021/01/13 11:12:34;;;;;;;;;;;-0.80;99.90;;;;;;4959850;28;20063;-67
2021/01/13 11:15:05;;;;;;;6.22;3.47;;;-0.70;99.90;;;;;;4958069;28;20313;-65
2021/01/13 11:17:32;;;;;;;9.52;5.38;;;-0.70;99.90;;;;;;4956412;28;20055;-67
2021/01/13 11:20:00;;;;;;;10.02;6.63;;;-0.60;99.90;;;;;;4964947;28;20043;-66
2021/01/13 11:22:44;;;;;;;11.45;7.25;;;-0.50;99.90;;;;;;4964102;28;20054;-64
2021/01/13 11:25:20;;;;;;;14.30;7.63;;;-0.50;99.90;;;;;;4957144;28;20129;-64
2021/01/13 11:27:58;;;;;;;12.75;6.57;;;-0.50;99.90;;;;;;4958364;28;20125;-64
2021/01/13 11:30:25;;;;;;;9.75;4.53;;;-0.50;99.90;;;;;;4964780;28;20450;-64
2021/01/13 11:33:05;;;;;;;5.75;3.78;;;-0.40;99.90;;;;;;4964184;28;20061;-66
2021/01/13 11:35:35;;;;;;;4.70;3.08;;;-0.40;99.90;;;;;;4960751;28;20062;-66
2021/01/13 11:38:23;;;;;;;3.95;2.55;;;-0.40;99.90;;;;;;4964703;28;20097;-67
2021/01/13 11:41:17;;;;;;;3.03;2.10;;;-0.30;99.90;;;;;;4964052;28;20126;-66
2021/01/13 11:44:23;;;;;;;3.80;2.15;;;-0.30;99.90;;;;;;4962680;28;20519;-68
2021/01/13 11:47:05;;;;;;;4.55;2.03;;;-0.30;99.90;;;;;;4958470;28;20302;-66
2021/01/13 11:49:36;;;;;;;3.50;2.72;;;-0.20;99.90;;;;;;4959887;28;20278;-67
2021/01/13 11:52:07;;;;;;;2.65;1.98;;;-0.20;99.90;;;;;;4961470;28;20058;-69
2021/01/13 11:54:36;;;;;;;4.43;1.33;;;-0.10;99.90;;;;;;4964499;28;20078;-69
2021/01/13 11:57:19;;;;;;;5.78;1.73;;;-0.10;99.90;;;;;;4962605;28;20054;-67
2021/01/13 11:59:47;;;;;;;13.73;2.17;;;0.00;99.90;;;;;;4962867;28;20611;-66
2021/01/13 12:02:25;;;;;;;4.03;2.40;;;0.00;99.90;;;;;;4963400;28;20071;-66
2021/01/13 12:04:52;;;;;;;5.57;1.77;;;0.10;99.90;;;;;;4963926;28;20050;-66
2021/01/13 12:07:19;;;;;;;3.53;2.28;;;0.20;99.90;;;;;;4961533;28;20815;-68
2021/01/13 12:10:05;;;;;;;1.48;1.38;;;0.30;99.90;;;;;;4963704;28;20062;-64
2021/01/13 12:12:33;;;;;;;2.65;1.63;;;0.30;99.90;;;;;;4963045;28;20205;-70
2021/01/13 12:15:08;;;;;;;6.28;2.50;;;0.40;99.90;;;;;;4964485;28;20047;-67
2021/01/13 12:17:46;;;;;;;10.52;2.60;;;0.40;99.90;;;;;;4961363;28;20111;-65
2021/01/13 12:20:33;;;;;;;6.63;2.25;;;0.50;99.90;;;;;;4959046;28;20062;-65
2021/01/13 12:23:18;;;;;;;2.72;2.08;;;0.60;99.90;;;;;;4963466;28;20070;-66
2021/01/13 12:25:46;;;;;;;6.15;2.50;;;0.60;99.90;;;;;;4962710;28;20067;-69
2021/01/13 12:28:13;;;;;;;1.75;1.30;;;0.70;99.90;;;;;;4963373;28;20059;-64
2021/01/13 12:30:54;;;;;;;4.00;1.92;;;0.80;99.90;;;;;;4963492;28;20141;-67
2021/01/13 12:33:23;;;;;;;5.13;1.55;;;0.80;99.90;;;;;;4962134;28;20047;-65
2021/01/13 12:35:49;;;;;;;1.73;1.63;;;0.90;99.90;;;;;;4964207;28;20050;-66
2021/01/13 12:38:16;;;;;;;3.83;2.20;;;1.00;99.90;;;;;;4962641;28;20047;-68
2021/01/13 12:40:42;;;;;;;3.97;2.10;;;1.00;99.90;;;;;;4957028;28;20074;-65
2021/01/13 12:43:19;;;;;;;2.55;1.98;;;1.10;99.90;;;;;;4955811;28;20055;-67
2021/01/13 12:45:46;;;;;;;7.00;2.08;;;1.10;99.90;;;;;;4962424;28;20050;-68
2021/01/13 12:48:14;;;;;;;6.05;2.30;;;1.10;99.90;;;;;;4962655;28;20806;-66
2021/01/13 12:50:41;;;;;;;9.88;2.33;;;1.10;99.90;;;;;;4964189;28;20054;-65
2021/01/13 12:53:08;;;;;;;12.93;2.78;;;1.10;99.90;;;;;;4964480;28;20066;-67
2021/01/13 12:55:34;;;;;;;11.52;5.20;;;1.20;99.90;;;;;;4961976;28;20665;-66
2021/01/13 12:58:01;;;;;;;6.57;2.63;;;1.10;99.90;;;;;;4962951;28;20051;-65
2021/01/13 13:00:27;;;;;;;3.35;1.73;;;1.10;99.90;;;;;;4962753;28;21241;-67
2021/01/13 13:02:54;;;;;;;6.13;2.50;;;1.10;99.90;;;;;;4961546;28;20684;-66
2021/01/13 13:05:20;;;;;;;6.55;2.72;;;1.10;99.90;;;;;;4961618;28;20043;-66
2021/01/13 13:07:47;;;;;;;8.90;2.80;;;1.10;99.90;;;;;;4962187;28;20136;-68
2021/01/13 13:10:14;;;;;;;7.13;1.92;;;1.00;99.90;;;;;;4962585;28;20043;-69
2021/01/13 13:12:41;;;;;;;4.68;1.70;;;1.00;99.90;;;;;;4963301;28;20564;-66
2021/01/13 13:15:08;;;;;;;3.50;2.15;;;1.00;99.90;;;;;;4963470;28;20337;-67
2021/01/13 13:17:38;;;;;;;8.60;1.75;;;0.90;99.90;;;;;;4959470;28;20055;-66
2021/01/13 13:20:07;;;;;;;3.13;1.65;;;0.90;99.90;;;;;;4963006;28;20050;-65